Time;durP1;ratioP1;P1;durP2;ratioP2;P2;SDS_P1;SDS_P2;PMS_P1;PMS_P2;Temp;Humidity;BMP_temperature;BMP_pressure;BME280_temperature;BME280_humidity;BME280_pressure;Samples;Min_cycle;Max_cycle;Signal;HPM_P1;HPM_P2
2023/08/27 00:00:52;;;;;;;16.95;10.32;;;;;;;14.85;100.00;98972.53;4938495;28;20042;-75
2023/08/27 00:03:18;;;;;;;16.55;10.65;;;;;;;14.86;100.00;98968.88;4921068;28;20061;-70
2023/08/27 00:05:43;;;;;;;16.00;10.32;;;;;;;14.87;100.00;98889.19;4938569;28;20046;-67
2023/08/27 00:08:10;;;;;;;22.27;10.43;;;;;;;14.86;100.00;98968.88;4939171;28;20054;-70
2023/08/27 00:10:35;;;;;;;17.02;10.40;;;;;;;14.87;100.00;98969.72;4936342;28;20540;-71
2023/08/27 00:13:01;;;;;;;18.50;11.48;;;;;;;14.89;100.00;98963.19;4920964;28;20517;-70
2023/08/27 00:15:26;;;;;;;17.15;11.60;;;;;;;14.90;100.00;98959.50;4922487;28;20046;-70
2023/08/27 00:17:54;;;;;;;14.82;10.23;;;;;;;14.91;100.00;98954.97;4935261;28;20046;-72
2023/08/27 00:20:19;;;;;;;17.85;10.60;;;;;;;14.93;100.00;98962.88;4920892;28;20051;-71
2023/08/27 00:22:44;;;;;;;16.33;10.48;;;;;;;14.94;100.00;98959.19;4919413;28;20090;-71
2023/08/27 00:25:09;;;;;;;19.25;10.77;;;;;;;14.95;100.00;98948.31;4938779;28;20785;-70
2023/08/27 00:27:35;;;;;;;16.83;10.23;;;;;;;14.96;100.00;98938.41;4920905;28;20446;-73
2023/08/27 00:30:00;;;;;;;17.75;10.90;;;;;;;14.99;100.00;98944.34;4936246;28;20047;-72
2023/08/27 00:32:28;;;;;;;16.95;11.00;;;;;;;15.01;100.00;98949.56;4912493;29;20049;-72
2023/08/27 00:34:53;;;;;;;17.33;10.95;;;;;;;15.01;100.00;98941.50;4899546;28;20065;-73
2023/08/27 00:37:19;;;;;;;20.63;11.10;;;;;;;15.00;100.00;98958.59;4923223;28;20070;-73
2023/08/27 00:39:44;;;;;;;42.05;13.48;;;;;;;14.99;100.00;98941.66;4903311;28;20073;-73
2023/08/27 00:42:09;;;;;;;19.42;11.52;;;;;;;15.01;100.00;98939.63;4931704;28;20557;-72
2023/08/27 00:44:35;;;;;;;19.33;12.02;;;;;;;15.01;100.00;98939.63;4897027;28;20051;-70
2023/08/27 00:47:00;;;;;;;21.00;11.18;;;;;;;15.01;100.00;98907.41;4903338;28;20429;-70
2023/08/27 00:49:26;;;;;;;16.08;10.63;;;;;;;15.02;100.00;98937.78;4901260;28;20457;-70
2023/08/27 00:51:52;;;;;;;17.10;11.20;;;;;;;15.04;100.00;98935.78;4937070;28;20485;-70
2023/08/27 00:54:18;;;;;;;18.80;11.45;;;;;;;15.06;100.00;98931.13;4930358;28;20062;-70
2023/08/27 00:56:44;;;;;;;14.88;10.85;;;;;;;15.06;100.00;98952.59;4919875;28;20047;-70
2023/08/27 00:59:10;;;;;;;17.85;12.40;;;;;;;15.04;100.00;98925.06;4901656;28;20426;-71
2023/08/27 01:01:37;;;;;;;21.17;12.15;;;;;;;15.05;100.00;98918.69;4918114;28;20054;-70
2023/08/27 01:04:02;;;;;;;19.80;13.43;;;;;;;15.06;100.00;98912.34;4915117;29;20089;-70
2023/08/27 01:06:28;;;;;;;19.85;11.98;;;;;;;15.07;100.00;98922.06;4920193;28;20047;-71
2023/08/27 01:09:15;;;;;;;20.67;11.35;;;;;;;15.17;100.00;98912.91;4899326;28;20062;-72
2023/08/27 01:11:55;;;;;;;18.10;12.07;;;;;;;15.15;100.00;98914.06;4913978;28;20051;-70
2023/08/27 01:14:22;;;;;;;19.83;11.48;;;;;;;15.13;100.00;98911.53;4919007;28;20516;-71
2023/08/27 01:16:50;;;;;;;18.30;12.15;;;;;;;15.15;100.00;98903.34;4903250;28;20046;-71
2023/08/27 01:19:16;;;;;;;18.65;11.93;;;;;;;15.16;100.00;98905.03;4919046;28;20071;-70
2023/08/27 01:21:42;;;;;;;17.52;11.75;;;;;;;15.17;100.00;98906.72;4918810;28;20050;-71
2023/08/27 01:24:07;;;;;;;18.48;12.98;;;;;;;15.17;100.00;98896.81;4936677;28;20421;-71
2023/08/27 01:26:35;;;;;;;19.38;13.85;;;;;;;15.19;100.00;98904.72;4919304;28;20042;-69
2023/08/27 01:29:08;;;;;;;20.58;13.20;;;;;;;15.22;100.00;98905.25;4936855;28;20050;-72
2023/08/27 01:31:39;;;;;;;22.17;14.52;;;;;;;15.23;100.00;98903.41;4926212;28;20118;-72
2023/08/27 01:34:07;;;;;;;22.50;15.40;;;;;;;15.21;100.00;98900.88;4917437;29;20410;-72
2023/08/27 01:36:35;;;;;;;26.00;15.95;;;;;;;15.23;100.00;98901.56;4898531;28;20053;-71
2023/08/27 01:39:01;;;;;;;22.58;15.20;;;;;;;15.25;100.00;98896.03;4902753;28;20058;-71
2023/08/27 01:41:26;;;;;;;26.58;15.38;;;;;;;15.23;100.00;98898.88;4936437;28;20039;-73
2023/08/27 01:43:51;;;;;;;22.67;14.57;;;;;;;15.24;100.00;98902.38;4915802;29;20050;-71
2023/08/27 01:46:17;;;;;;;21.05;15.45;;;;;;;15.24;100.00;98899.69;4902610;29;20055;-71
2023/08/27 01:48:42;;;;;;;20.30;14.00;;;;;;;15.26;100.00;98895.03;4896723;28;20034;-71
2023/08/27 01:51:07;;;;;;;21.13;14.45;;;;;;;15.24;100.00;98905.06;4924294;28;20070;-71
2023/08/27 01:53:33;;;;;;;24.85;16.55;;;;;;;15.24;100.00;98900.53;4939297;28;20050;-72
2023/08/27 01:55:58;;;;;;;23.20;15.23;;;;;;;15.25;100.00;98904.91;4939972;28;20485;-69
2023/08/27 01:58:23;;;;;;;21.40;14.38;;;;;;;15.26;100.00;98905.75;4937870;28;20046;-70
2023/08/27 02:00:49;;;;;;;19.48;13.50;;;;;;;15.24;100.00;98924.72;4920248;28;20050;-68
2023/08/27 02:03:15;;;;;;;17.15;13.82;;;;;;;15.23;100.00;98917.69;4930314;28;20513;-69
2023/08/27 02:05:40;;;;;;;19.98;14.60;;;;;;;15.26;100.00;98908.44;4937481;28;20550;-73
2023/08/27 02:08:05;;;;;;;22.15;14.43;;;;;;;15.26;100.00;98911.97;4905062;28;20058;-69
2023/08/27 02:10:30;;;;;;;21.23;13.70;;;;;;;15.26;100.00;98917.34;4936455;28;20051;-71
2023/08/27 02:12:56;;;;;;;16.95;13.07;;;;;;;15.29;100.00;98931.47;4903664;28;20054;-73
2023/08/27 02:15:22;;;;;;;19.88;13.63;;;;;;;15.30;100.00;98915.19;4891087;28;20050;-70
2023/08/27 02:17:47;;;;;;;18.67;13.45;;;;;;;15.32;100.00;98912.38;4919840;28;20054;-70
2023/08/27 02:20:12;;;;;;;19.75;13.60;;;;;;;15.32;100.00;98920.41;4900835;28;20421;-69
2023/08/27 02:22:37;;;;;;;17.92;13.70;;;;;;;15.32;100.00;98912.38;4901591;28;20069;-70
2023/08/27 02:25:03;;;;;;;21.10;14.00;;;;;;;15.33;100.00;98916.75;4918882;28;20053;-69
2023/08/27 02:27:29;;;;;;;23.35;16.20;;;;;;;15.34;100.00;98918.44;4918953;28;20058;-70
2023/08/27 02:29:55;;;;;;;23.55;16.67;;;;;;;15.35;100.00;98909.38;4918390;28;20055;-71
2023/08/27 02:32:20;;;;;;;19.05;14.90;;;;;;;15.35;100.00;98931.66;4935355;28;20042;-68
2023/08/27 02:34:45;;;;;;;18.60;14.63;;;;;;;15.36;100.00;98917.25;4932225;28;20045;-69
2023/08/27 02:37:10;;;;;;;20.38;14.80;;;;;;;15.38;100.00;98911.72;4917557;28;20116;-70
2023/08/27 02:39:36;;;;;;;21.98;16.35;;;;;;;15.38;100.00;98906.34;4918943;28;20536;-70
2023/08/27 02:42:02;;;;;;;27.05;17.17;;;;;;;15.40;100.00;98912.41;4930404;28;20055;-74
2023/08/27 02:44:27;;;;;;;29.45;19.45;;;;;;;15.40;100.00;98915.94;4900006;29;20047;-72
2023/08/27 02:46:53;;;;;;;26.67;19.60;;;;;;;15.41;100.00;98912.25;4928958;28;20046;-70
2023/08/27 02:49:19;;;;;;;30.35;19.98;;;;;;;15.43;100.00;98917.47;4921120;28;20057;-71
2023/08/27 02:51:44;;;;;;;24.95;18.60;;;;;;;15.44;100.00;98908.41;4923571;28;20046;-72
2023/08/27 02:54:10;;;;;;;25.27;18.27;;;;;;;15.45;100.00;98910.09;4922661;29;20498;-71
2023/08/27 02:56:35;;;;;;;24.38;18.75;;;;;;;15.47;100.00;98916.13;4920211;29;20043;-74
2023/08/27 02:59:00;;;;;;;22.13;16.58;;;;;;;15.47;100.00;98925.03;4921352;29;20074;-71
2023/08/27 03:01:26;;;;;;;22.33;16.42;;;;;;;15.49;100.00;98939.16;4923744;28;20042;-70
2023/08/27 03:03:51;;;;;;;23.55;16.17;;;;;;;15.49;100.00;98901.56;4920733;28;20050;-71
2023/08/27 03:06:18;;;;;;;24.23;17.83;;;;;;;15.51;100.00;98898.72;4902183;28;20510;-71
2023/08/27 03:08:44;;;;;;;22.13;16.05;;;;;;;15.53;100.00;98894.03;4902853;28;20449;-70
2023/08/27 03:11:09;;;;;;;19.27;14.98;;;;;;;15.54;100.00;98903.78;4934680;28;20042;-77
2023/08/27 03:13:35;;;;;;;22.08;15.82;;;;;;;15.55;100.00;98898.28;4937851;28;20050;-77
2023/08/27 03:16:00;;;;;;;23.55;17.08;;;;;;;15.57;100.00;98898.97;4920994;28;20054;-74
2023/08/27 03:18:28;;;;;;;21.10;15.52;;;;;;;15.58;100.00;98902.47;4946531;28;20027;-70
2023/08/27 03:20:53;;;;;;;23.65;16.20;;;;;;;15.63;100.00;98902.00;4941143;28;20059;-70
2023/08/27 03:23:18;;;;;;;19.65;13.98;;;;;;;15.62;100.00;98928.03;4915566;28;20751;-72
2023/08/27 03:25:44;;;;;;;21.73;16.30;;;;;;;15.62;100.00;98901.16;4930634;28;20047;-71
2023/08/27 03:28:09;;;;;;;20.17;16.05;;;;;;;15.65;100.00;98908.06;4935132;28;20038;-71
2023/08/27 03:30:34;;;;;;;20.33;14.73;;;;;;;15.67;100.00;98908.75;4927679;28;20057;-71
2023/08/27 03:32:59;;;;;;;22.55;15.35;;;;;;;15.68;100.00;98910.44;4902432;29;20062;-71
2023/08/27 03:35:26;;;;;;;18.52;13.70;;;;;;;15.68;100.00;98895.16;4889978;28;20425;-71
2023/08/27 03:37:52;;;;;;;21.60;15.40;;;;;;;15.68;100.00;98911.28;4905772;28;20074;-71
2023/08/27 03:40:20;;;;;;;18.70;14.82;;;;;;;15.69;100.00;98896.00;4908693;28;20050;-72
2023/08/27 03:42:45;;;;;;;22.50;15.45;;;;;;;15.69;100.00;98898.69;4937539;28;20058;-70
2023/08/27 03:45:10;;;;;;;21.83;14.55;;;;;;;15.71;100.00;98899.34;4921010;28;20086;-71
2023/08/27 03:47:35;;;;;;;21.65;15.20;;;;;;;15.73;100.00;98894.66;4938939;28;20512;-71
2023/08/27 03:50:01;;;;;;;19.77;15.15;;;;;;;15.75;100.00;98895.34;4921676;28;20066;-71
2023/08/27 03:52:27;;;;;;;21.75;14.48;;;;;;;15.77;100.00;98904.09;4921996;28;20047;-71
2023/08/27 03:54:52;;;;;;;24.77;15.45;;;;;;;15.79;100.00;98902.94;4937908;28;20042;-75
2023/08/27 03:57:17;;;;;;;21.90;15.38;;;;;;;15.84;100.00;98897.06;4923666;28;20493;-74
2023/08/27 03:59:42;;;;;;;19.90;14.57;;;;;;;15.86;100.00;98903.97;4939888;28;20047;-74
2023/08/27 04:02:08;;;;;;;21.05;15.43;;;;;;;15.89;100.00;98897.44;4906992;28;20062;-71
2023/08/27 04:04:35;;;;;;;23.70;14.85;;;;;;;15.93;100.00;98906.84;4921262;28;20042;-71
2023/08/27 04:07:01;;;;;;;24.85;15.63;;;;;;;15.96;100.00;98887.72;4921036;28;20078;-71
2023/08/27 04:09:27;;;;;;;24.35;15.52;;;;;;;16.00;100.00;98877.50;4938801;28;20046;-71
2023/08/27 04:11:52;;;;;;;24.90;15.93;;;;;;;16.03;99.69;98893.31;4938811;28;20069;-71
2023/08/27 04:14:17;;;;;;;24.25;14.98;;;;;;;16.05;99.39;98892.13;4922079;28;20046;-71
2023/08/27 04:16:43;;;;;;;22.55;15.05;;;;;;;16.09;99.37;98865.75;4939036;28;20053;-71
2023/08/27 04:19:08;;;;;;;21.13;14.40;;;;;;;16.06;98.63;98866.91;4905602;28;20055;-71
2023/08/27 04:21:33;;;;;;;18.88;13.68;;;;;;;16.02;98.02;98860.19;4905278;28;20050;-72
2023/08/27 04:23:59;;;;;;;19.10;13.63;;;;;;;16.03;97.40;98858.34;4904111;28;20053;-72
2023/08/27 04:26:24;;;;;;;19.35;13.82;;;;;;;16.03;97.22;98850.28;4904407;28;20371;-72
2023/08/27 04:28:50;;;;;;;18.33;13.55;;;;;;;16.04;96.75;98862.69;4938520;28;20046;-69
2023/08/27 04:31:16;;;;;;;16.63;12.93;;;;;;;16.06;96.93;98866.06;4904439;28;20077;-71
2023/08/27 04:33:41;;;;;;;16.85;12.77;;;;;;;16.05;96.13;98864.38;4920178;28;20061;-71
2023/08/27 04:36:06;;;;;;;17.25;13.23;;;;;;;16.04;95.71;98858.16;4936944;28;20731;-71
2023/08/27 04:38:32;;;;;;;15.07;12.07;;;;;;;16.06;95.32;98850.78;4920726;28;20054;-72
2023/08/27 04:40:57;;;;;;;18.10;13.43;;;;;;;16.11;95.44;98859.22;4937838;28;20046;-73
2023/08/27 04:43:22;;;;;;;14.80;11.48;;;;;;;16.17;94.72;98857.69;4932679;28;20049;-71
2023/08/27 04:45:47;;;;;;;18.05;13.20;;;;;;;16.23;94.50;98890.16;4937823;28;20498;-72
2023/08/27 04:48:14;;;;;;;16.15;11.55;;;;;;;16.31;94.50;98867.81;4936597;28;20057;-72
2023/08/27 04:50:43;;;;;;;15.75;12.38;;;;;;;16.37;93.97;98880.59;4920150;28;20425;-75
2023/08/27 04:53:09;;;;;;;14.07;11.38;;;;;;;16.40;93.57;98871.38;4921720;28;20047;-76
2023/08/27 04:55:34;;;;;;;14.75;12.30;;;;;;;16.43;93.55;98869.19;4937857;28;20055;-74
2023/08/27 04:58:00;;;;;;;16.63;12.05;;;;;;;16.47;93.27;98869.72;4921289;28;20051;-74
2023/08/27 05:00:25;;;;;;;19.35;12.25;;;;;;;16.53;93.09;98871.72;4921050;28;20043;-73
2023/08/27 05:02:50;;;;;;;19.15;13.40;;;;;;;16.63;93.09;98869.75;4921154;28;20050;-73
2023/08/27 05:05:17;;;;;;;14.38;12.10;;;;;;;16.73;92.81;98886.59;4921186;28;20502;-74
2023/08/27 05:07:42;;;;;;;14.23;11.32;;;;;;;16.79;91.95;98858.16;4921992;28;20054;-75
2023/08/27 05:10:09;;;;;;;17.80;12.93;;;;;;;16.85;91.39;98885.25;4922878;28;20490;-76
2023/08/27 05:12:34;;;;;;;14.52;10.88;;;;;;;16.90;90.62;98909.81;4906299;28;20047;-76
2023/08/27 05:15:00;;;;;;;13.48;11.70;;;;;;;16.93;90.28;98893.31;4922810;28;20057;-75
2023/08/27 05:17:25;;;;;;;16.38;10.65;;;;;;;16.93;89.66;98892.50;4938632;28;20043;-76
2023/08/27 05:19:51;;;;;;;15.98;11.90;;;;;;;16.95;89.31;98869.75;4921200;28;20057;-70
2023/08/27 05:22:16;;;;;;;20.25;11.25;;;;;;;16.96;89.13;98876.81;4903384;28;20058;-71
2023/08/27 05:24:41;;;;;;;15.27;11.35;;;;;;;17.00;88.72;98874.66;4935815;28;20425;-71
2023/08/27 05:27:06;;;;;;;14.30;11.35;;;;;;;17.00;88.58;98905.13;4920061;28;20049;-72
2023/08/27 05:29:31;;;;;;;17.00;14.38;;;;;;;17.02;88.13;98896.88;4937376;28;20054;-72
2023/08/27 05:31:57;;;;;;;24.33;15.98;;;;;;;17.04;88.21;98884.91;4937507;28;20042;-73
2023/08/27 05:34:23;;;;;;;28.20;21.75;;;;;;;17.02;87.75;98870.78;4937725;28;20046;-72
2023/08/27 05:36:48;;;;;;;27.83;21.92;;;;;;;17.00;87.65;98891.66;4903365;28;20502;-70
2023/08/27 05:39:15;;;;;;;27.17;19.63;;;;;;;17.02;87.54;98860.00;4937727;28;20059;-74
2023/08/27 05:41:41;;;;;;;23.70;17.65;;;;;;;17.05;87.61;98912.66;4936682;28;20054;-73
2023/08/27 05:44:08;;;;;;;23.92;17.42;;;;;;;17.15;87.29;98875.66;4904855;28;20053;-75
2023/08/27 05:46:33;;;;;;;22.00;17.42;;;;;;;17.24;86.21;98879.19;4921691;28;20050;-75
2023/08/27 05:49:00;;;;;;;25.77;17.52;;;;;;;17.36;85.56;98883.19;4937029;28;20413;-75
2023/08/27 05:51:26;;;;;;;22.48;16.70;;;;;;;17.51;85.68;98876.06;4905741;28;20061;-74
2023/08/27 05:53:52;;;;;;;21.17;16.42;;;;;;;17.63;85.21;98907.06;4937078;28;20050;-74
2023/08/27 05:56:17;;;;;;;21.80;15.85;;;;;;;17.76;84.36;98907.38;4921075;28;20050;-75
2023/08/27 05:58:42;;;;;;;21.58;15.80;;;;;;;17.85;83.46;98893.88;4937118;28;20441;-73
2023/08/27 06:01:08;;;;;;;22.30;16.48;;;;;;;17.95;83.22;98883.72;4937362;28;20050;-73
2023/08/27 06:03:33;;;;;;;24.60;15.60;;;;;;;18.03;82.44;98872.91;4904858;28;20054;-75
2023/08/27 06:05:59;;;;;;;23.95;15.63;;;;;;;18.08;82.17;98878.59;4905389;28;20073;-74
2023/08/27 06:08:24;;;;;;;19.75;14.70;;;;;;;18.13;82.02;98870.84;4937778;28;20038;-75
2023/08/27 06:10:50;;;;;;;25.75;15.65;;;;;;;18.13;81.14;98877.06;4904170;28;20046;-74
2023/08/27 06:13:15;;;;;;;19.05;15.07;;;;;;;18.13;81.08;98873.53;4903958;28;20050;-76
2023/08/27 06:15:40;;;;;;;20.17;14.13;;;;;;;18.14;80.76;98878.75;4920574;28;20050;-76
2023/08/27 06:18:07;;;;;;;20.13;14.82;;;;;;;18.15;80.49;98885.00;4936266;28;20070;-76
2023/08/27 06:20:33;;;;;;;25.92;15.30;;;;;;;18.14;80.10;98896.78;4920331;28;20133;-76
2023/08/27 06:23:04;;;;;;;22.65;15.85;;;;;;;18.10;80.20;98904.38;4920345;28;20050;-76
2023/08/27 06:25:35;;;;;;;22.77;16.42;;;;;;;18.10;80.30;98919.72;4920590;28;20402;-77
2023/08/27 06:28:05;;;;;;;23.58;15.75;;;;;;;18.06;80.06;98913.84;4920875;28;20062;-75
2023/08/27 06:30:31;;;;;;;20.85;13.90;;;;;;;18.02;80.68;98911.69;4920958;28;20080;-75
2023/08/27 06:32:59;;;;;;;19.48;14.32;;;;;;;17.83;79.87;98901.31;4936464;28;20050;-75
2023/08/27 06:35:24;;;;;;;28.55;15.85;;;;;;;17.77;80.33;98919.84;4921146;28;20049;-75
2023/08/27 06:37:49;;;;;;;23.42;14.88;;;;;;;17.74;81.09;98930.97;4936374;28;20437;-75
2023/08/27 06:40:15;;;;;;;20.35;14.52;;;;;;;17.75;81.74;98904.84;4920945;28;20426;-76
2023/08/27 06:42:41;;;;;;;21.25;13.35;;;;;;;17.78;81.54;98899.13;4920867;28;20047;-75
2023/08/27 06:45:07;;;;;;;22.48;14.88;;;;;;;17.82;81.26;98905.03;4920606;28;20050;-75
2023/08/27 06:47:32;;;;;;;22.17;14.00;;;;;;;17.88;82.04;98897.06;4920793;28;20042;-75
2023/08/27 06:49:58;;;;;;;21.17;13.48;;;;;;;17.98;82.14;98916.56;4941542;28;20473;-75
2023/08/27 06:52:23;;;;;;;21.23;13.23;;;;;;;18.12;81.55;98882.63;4940139;28;20038;-76
2023/08/27 06:54:49;;;;;;;16.90;13.30;;;;;;;18.35;81.41;98886.22;4923458;28;20054;-76
2023/08/27 06:57:14;;;;;;;17.70;13.23;;;;;;;18.66;80.20;98877.28;4924039;28;20130;-75
2023/08/27 06:59:41;;;;;;;17.55;12.68;;;;;;;18.95;77.58;98881.97;4923856;28;20093;-75
2023/08/27 07:02:09;;;;;;;18.25;13.23;;;;;;;19.30;76.50;98894.00;4924506;28;20046;-77
2023/08/27 07:04:34;;;;;;;17.33;12.73;;;;;;;19.64;73.35;98910.53;4923959;28;20047;-75
2023/08/27 07:06:59;;;;;;;15.57;11.70;;;;;;;20.12;72.54;98903.75;4940032;28;20047;-75
2023/08/27 07:09:27;;;;;;;15.50;11.88;;;;;;;20.53;71.46;98895.97;4907618;28;20054;-74
2023/08/27 07:11:53;;;;;;;18.30;11.43;;;;;;;20.81;70.00;98892.47;4924096;28;20489;-74
2023/08/27 07:14:18;;;;;;;16.77;11.40;;;;;;;21.03;69.05;98896.88;4924461;28;20058;-74
2023/08/27 07:16:44;;;;;;;18.77;12.27;;;;;;;21.45;68.09;98881.59;4908233;28;20054;-73
2023/08/27 07:19:09;;;;;;;16.88;11.27;;;;;;;21.89;66.95;98884.00;4906788;28;20058;-73
2023/08/27 07:21:34;;;;;;;15.13;10.02;;;;;;;22.09;64.88;98876.81;4923592;28;20045;-74
2023/08/27 07:24:00;;;;;;;12.90;11.10;;;;;;;22.12;64.14;98887.28;4928363;28;20053;-74
2023/08/27 07:26:25;;;;;;;13.95;10.77;;;;;;;22.05;64.07;98887.22;4942849;28;20058;-73
2023/08/27 07:28:52;;;;;;;14.50;10.65;;;;;;;22.08;63.22;98884.13;4926230;28;20062;-73
2023/08/27 07:31:17;;;;;;;15.70;10.95;;;;;;;22.38;62.26;98881.94;4931421;28;20505;-73
2023/08/27 07:33:42;;;;;;;16.10;10.77;;;;;;;22.78;59.92;98877.50;4939718;28;20524;-76
2023/08/27 07:36:08;;;;;;;11.25;9.07;;;;;;;22.79;58.85;98872.91;4956830;28;20057;-74
2023/08/27 07:38:38;;;;;;;14.68;10.48;;;;;;;22.81;59.48;98876.22;4941504;28;20509;-75
2023/08/27 07:41:04;;;;;;;14.63;10.70;;;;;;;22.96;60.06;98874.16;4942278;28;20378;-74
2023/08/27 07:43:29;;;;;;;11.40;9.68;;;;;;;23.48;60.15;98883.34;4923881;28;20050;-75
2023/08/27 07:45:54;;;;;;;12.63;9.90;;;;;;;24.11;58.40;98873.63;4939615;28;20074;-75
2023/08/27 07:48:19;;;;;;;14.82;9.77;;;;;;;26.05;55.14;98865.53;4922143;28;20057;-75
2023/08/27 07:50:46;;;;;;;12.23;8.60;;;;;;;27.99;50.52;98861.31;4922266;28;20051;-75
2023/08/27 07:53:11;;;;;;;11.30;9.27;;;;;;;30.13;45.10;98862.16;4921035;28;20046;-76
2023/08/27 07:55:37;;;;;;;11.43;9.05;;;;;;;32.69;40.42;98838.03;4921279;28;20758;-75
2023/08/27 07:58:04;;;;;;;12.55;8.80;;;;;;;35.02;35.85;98852.53;4905897;28;20060;-75
2023/08/27 08:00:29;;;;;;;12.32;9.02;;;;;;;36.97;31.82;98851.81;4921848;28;20051;-74
2023/08/27 08:02:56;;;;;;;10.85;9.65;;;;;;;38.61;29.46;98840.22;4905604;28;20047;-75
2023/08/27 08:05:22;;;;;;;12.73;10.02;;;;;;;40.16;26.94;98835.75;4939418;28;20421;-74
2023/08/27 08:07:47;;;;;;;10.43;9.43;;;;;;;41.42;24.93;98817.03;4921224;28;20042;-74
2023/08/27 08:10:12;;;;;;;12.18;10.60;;;;;;;41.98;23.47;98818.69;4938588;28;20054;-75
2023/08/27 08:12:37;;;;;;;11.95;9.50;;;;;;;42.32;22.85;98828.09;4938483;28;20035;-73
2023/08/27 08:15:03;;;;;;;11.13;9.93;;;;;;;41.87;23.08;98817.41;4905164;28;20046;-73
2023/08/27 08:17:30;;;;;;;11.80;10.63;;;;;;;41.09;23.37;98825.06;4938159;28;20043;-73
2023/08/27 08:19:55;;;;;;;13.63;11.00;;;;;;;39.47;24.99;98829.81;4938321;28;20061;-73
2023/08/27 08:22:21;;;;;;;12.80;9.48;;;;;;;37.32;26.80;98815.16;4920602;28;20069;-74
2023/08/27 08:24:46;;;;;;;11.30;10.10;;;;;;;35.75;28.46;98808.13;4937094;28;20057;-73
2023/08/27 08:27:12;;;;;;;11.90;9.18;;;;;;;34.50;30.28;98804.94;4938254;28;20255;-75
2023/08/27 08:29:37;;;;;;;9.55;8.35;;;;;;;34.10;31.19;98813.38;4920886;28;20055;-75
2023/08/27 08:32:03;;;;;;;9.38;8.38;;;;;;;35.53;29.91;98817.75;4922656;28;20449;-74
2023/08/27 08:34:28;;;;;;;10.55;9.45;;;;;;;37.73;27.48;98803.28;4938499;28;20580;-75
2023/08/27 08:36:54;;;;;;;11.80;9.93;;;;;;;39.92;24.86;98791.50;4924181;28;20074;-75
2023/08/27 08:39:19;;;;;;;12.20;9.32;;;;;;;40.41;23.63;98800.72;4921853;28;20058;-74
2023/08/27 08:41:56;;;;;;;15.48;9.13;;;;;;;40.99;22.92;98809.47;4921485;28;20039;-77
2023/08/27 08:44:39;;;;;;;11.10;10.00;;;;;;;42.62;22.17;98812.91;4938919;28;20047;-75
2023/08/27 08:47:05;;;;;;;;;;;;;;;44.71;19.93;98799.81;4921393;28;20050;-74
2023/08/27 08:49:33;;;;;;;12.38;11.10;;;;;;;44.19;20.04;98802.59;4938210;28;20373;-75
2023/08/27 08:52:04;;;;;;;13.02;11.95;;;;;;;44.60;19.49;98801.50;4937797;28;20047;-72
2023/08/27 08:54:29;;;;;;;12.15;11.05;;;;;;;44.72;19.52;98789.38;4936254;28;20051;-73
2023/08/27 08:57:00;;;;;;;14.25;11.52;;;;;;;45.17;18.74;98783.53;4919806;28;20417;-74
2023/08/27 08:59:28;;;;;;;12.68;11.48;;;;;;;45.69;18.67;98810.72;4936021;28;20050;-73
2023/08/27 09:01:53;;;;;;;16.02;12.88;;;;;;;46.37;18.29;98800.00;4937611;28;20038;-73
2023/08/27 09:04:20;;;;;;;12.48;11.05;;;;;;;46.94;17.60;98799.28;4904162;28;20061;-73
2023/08/27 09:06:46;;;;;;;13.77;12.48;;;;;;;47.26;17.17;98796.31;4939553;28;20061;-75
2023/08/27 09:09:13;;;;;;;14.52;13.18;;;;;;;47.55;16.78;98783.56;4919630;28;20406;-75
2023/08/27 09:11:38;;;;;;;14.90;13.70;;;;;;;47.77;16.66;98796.09;4936209;28;20069;-74
2023/08/27 09:14:04;;;;;;;19.20;13.20;;;;;;;48.00;16.32;98782.75;4919190;28;20046;-74
2023/08/27 09:16:30;;;;;;;16.10;14.00;;;;;;;48.11;16.00;98794.25;4937129;28;20042;-74
2023/08/27 09:18:55;;;;;;;15.45;14.15;;;;;;;47.99;15.86;98747.22;4920075;28;20057;-74
2023/08/27 09:21:21;;;;;;;15.40;13.90;;;;;;;47.77;16.09;98773.47;4935886;28;20413;-73
2023/08/27 09:23:46;;;;;;;12.57;11.57;;;;;;;47.53;16.14;98802.91;4936776;28;20441;-73
2023/08/27 09:26:14;;;;;;;13.15;12.05;;;;;;;47.15;16.42;98793.28;4937073;28;20043;-74
2023/08/27 09:28:40;;;;;;;13.13;11.63;;;;;;;46.17;16.88;98772.91;4936983;28;20046;-73
2023/08/27 09:31:09;;;;;;;11.95;10.80;;;;;;;45.34;17.45;98783.22;4936832;28;20102;-75
2023/08/27 09:33:43;;;;;;;12.18;11.05;;;;;;;45.01;17.89;98751.72;4919504;28;20054;-74
2023/08/27 09:36:09;;;;;;;11.05;10.02;;;;;;;43.86;18.92;98757.72;4936693;28;20057;-74
2023/08/27 09:38:35;;;;;;;10.50;9.50;;;;;;;42.83;19.68;98748.44;4936663;28;20062;-75
2023/08/27 09:41:17;;;;;;;9.18;8.38;;;;;;;42.57;20.06;98733.78;4937071;28;20061;-74
2023/08/27 09:43:53;;;;;;;10.38;9.15;;;;;;;42.18;19.93;98733.06;4903936;28;20572;-73
2023/08/27 09:46:19;;;;;;;11.88;9.48;;;;;;;41.82;20.91;98730.78;4924010;28;20073;-74
2023/08/27 09:48:56;;;;;;;10.20;9.30;;;;;;;42.33;19.77;98734.44;4938491;28;20054;-75
2023/08/27 09:51:22;;;;;;;10.38;9.55;;;;;;;41.76;20.27;98725.72;4940678;28;20072;-74
2023/08/27 09:53:47;;;;;;;9.40;8.70;;;;;;;41.95;20.33;98718.56;4920303;28;20053;-75
2023/08/27 09:56:12;;;;;;;8.95;8.23;;;;;;;41.84;19.84;98728.47;4934942;28;20050;-73
2023/08/27 09:58:38;;;;;;;9.07;8.27;;;;;;;40.32;20.91;98724.44;4903845;28;20627;-75
2023/08/27 10:01:03;;;;;;;8.00;7.40;;;;;;;38.43;22.51;98741.72;4919367;28;20058;-74
2023/08/27 10:03:29;;;;;;;7.05;6.30;;;;;;;38.11;23.02;98720.44;4881051;28;20077;-74
2023/08/27 10:05:55;;;;;;;7.82;7.00;;;;;;;39.46;22.12;98713.81;4921925;28;20051;-72
2023/08/27 10:08:21;;;;;;;7.80;7.10;;;;;;;40.34;20.94;98720.16;4887458;28;20061;-69
2023/08/27 10:10:46;;;;;;;7.82;6.82;;;;;;;39.56;21.26;98733.88;4918398;28;20051;-71
2023/08/27 10:13:14;;;;;;;8.70;7.43;;;;;;;38.21;22.90;98719.41;4917886;28;20051;-72
2023/08/27 10:15:40;;;;;;;8.95;7.03;;;;;;;36.70;24.38;98742.22;4921500;28;20409;-71
2023/08/27 10:18:09;;;;;;;7.38;6.40;;;;;;;35.34;26.01;98713.44;4903065;29;20054;-72
2023/08/27 10:20:36;;;;;;;6.72;6.00;;;;;;;34.09;27.56;98725.97;4927131;28;20498;-71
2023/08/27 10:23:02;;;;;;;8.63;6.13;;;;;;;33.07;29.48;98715.19;4942035;28;20047;-70
2023/08/27 10:25:28;;;;;;;8.52;5.80;;;;;;;32.20;30.64;98715.41;4908049;28;20050;-71
2023/08/27 10:27:55;;;;;;;6.10;5.38;;;;;;;31.41;31.66;98713.66;4942112;28;20055;-71
2023/08/27 10:30:20;;;;;;;8.13;5.50;;;;;;;30.77;33.15;98719.28;4927789;28;20047;-71
2023/08/27 10:32:46;;;;;;;8.10;4.90;;;;;;;30.16;32.83;98713.16;4943036;28;20055;-70
2023/08/27 10:35:12;;;;;;;7.30;5.40;;;;;;;29.59;34.01;98701.72;4923530;28;20055;-72
2023/08/27 10:37:43;;;;;;;9.55;6.32;;;;;;;29.04;35.27;98715.47;4936227;28;20506;-71
2023/08/27 10:40:11;;;;;;;6.35;5.32;;;;;;;28.62;35.76;98704.09;4911581;28;20050;-71
2023/08/27 10:42:37;;;;;;;5.93;4.88;;;;;;;28.29;36.65;98707.63;4930355;28;20414;-71
2023/08/27 10:45:19;;;;;;;8.70;5.13;;;;;;;28.14;36.35;98708.13;4923945;28;20051;-72
2023/08/27 10:48:18;;;;;;;6.65;4.95;;;;;;;27.84;37.71;98705.66;4907514;28;20046;-75
2023/08/27 10:50:46;;;;;;;6.10;5.45;;;;;;;27.21;37.62;98711.09;4920665;28;20046;-76
2023/08/27 10:53:13;;;;;;;6.55;4.82;;;;;;;26.91;38.52;98716.69;4922526;28;20043;-75
2023/08/27 10:55:40;;;;;;;7.03;5.13;;;;;;;26.78;38.94;98712.25;4921261;28;20054;-74
2023/08/27 10:58:23;;;;;;;6.70;5.40;;;;;;;26.83;39.10;98714.31;4939529;28;20421;-76
2023/08/27 11:01:13;;;;;;;5.80;4.85;;;;;;;26.72;39.79;98713.22;4924960;28;20051;-76
2023/08/27 11:04:03;;;;;;;5.28;4.68;;;;;;;26.83;39.16;98704.19;4923868;28;20058;-76
2023/08/27 11:06:45;;;;;;;4.93;4.32;;;;;;;26.52;39.42;98721.75;4903030;28;20057;-76
2023/08/27 11:09:27;;;;;;;4.47;4.07;;;;;;;26.33;39.22;98712.78;4940872;28;20054;-76
2023/08/27 11:11:55;;;;;;;5.53;4.18;;;;;;;26.27;39.37;98694.59;4942851;28;20050;-77
2023/08/27 11:14:23;;;;;;;4.22;3.72;;;;;;;26.19;39.82;98714.00;4940239;28;20042;-74